Time;durP1;ratioP1;P1;durP2;ratioP2;P2;SDS_P1;SDS_P2;PMS_P1;PMS_P2;Temp;Humidity;BMP_temperature;BMP_pressure;BME280_temperature;BME280_humidity;BME280_pressure;Samples;Min_cycle;Max_cycle;Signal;HPM_P1;HPM_P2
2023/07/26 00:01:48;;;;;;;6.47;2.38;;;;;;;;;;5094752;28;20174;-75
2023/07/26 00:04:14;;;;;;;4.32;3.15;;;;;;;;;;5088105;28;20566;-75
2023/07/26 00:06:40;;;;;;;4.47;2.90;;;;;;;;;;5094620;28;20190;-75
2023/07/26 00:09:08;;;;;;;5.75;3.47;;;27.50;64.10;;;;;;5096518;28;20205;-75
2023/07/26 00:11:34;;;;;;;9.85;3.58;;;27.50;64.50;;;;;;5093806;28;20719;-74
2023/07/26 00:14:00;;;;;;;8.32;3.10;;;;;;;;;;5091762;28;20706;-75
2023/07/26 00:16:26;;;;;;;10.57;3.10;;;;;;;;;;5093950;28;20571;-74
2023/07/26 00:18:52;;;;;;;6.38;2.90;;;;;;;;;;5090797;28;20265;-74
2023/07/26 00:21:18;;;;;;;9.30;3.30;;;;;;;;;;5089688;28;20193;-74
2023/07/26 00:23:44;;;;;;;7.15;3.42;;;;;;;;;;5090850;28;20613;-74
2023/07/26 00:26:10;;;;;;;6.03;2.80;;;;;;;;;;5090199;28;20223;-74
2023/07/26 00:28:36;;;;;;;8.07;4.03;;;;;;;;;;5093290;28;20235;-74
2023/07/26 00:31:02;;;;;;;5.43;2.90;;;27.30;65.40;;;;;;5089994;28;20209;-74
2023/07/26 00:33:28;;;;;;;7.00;3.42;;;;;;;;;;5090099;28;20757;-74
2023/07/26 00:35:54;;;;;;;8.82;3.03;;;;;;;;;;5090023;28;20220;-74
2023/07/26 00:38:20;;;;;;;4.15;2.90;;;;;;;;;;5093065;28;20179;-74
2023/07/26 00:40:46;;;;;;;3.90;2.72;;;;;;;;;;5090027;28;20182;-74
2023/07/26 00:43:12;;;;;;;7.35;3.55;;;;;;;;;;5090075;28;20183;-74
2023/07/26 00:45:39;;;;;;;6.80;3.30;;;27.20;66.80;;;;;;5091082;28;20266;-74
2023/07/26 00:48:06;;;;;;;6.25;4.03;;;27.10;66.50;;;;;;5096488;28;20170;-74
2023/07/26 00:50:32;;;;;;;4.20;3.00;;;27.10;67.30;;;;;;5089845;28;20174;-74
2023/07/26 00:52:58;;;;;;;7.57;2.83;;;27.00;68.20;;;;;;5090025;28;20210;-74
2023/07/26 00:55:24;;;;;;;4.57;3.00;;;27.00;68.30;;;;;;5090173;28;20569;-74
2023/07/26 00:57:50;;;;;;;3.58;3.05;;;26.90;67.50;;;;;;5092347;28;20630;-74
2023/07/26 01:00:18;;;;;;;6.82;3.53;;;;;;;;;;5092556;28;20167;-74
2023/07/26 01:02:44;;;;;;;8.43;3.80;;;;;;;;;;5088703;28;20236;-74
2023/07/26 01:05:10;;;;;;;7.43;4.20;;;;;;;;;;5089836;28;20198;-74
2023/07/26 01:07:51;;;;;;;9.93;5.03;;;;;;;;;;5086081;28;20195;-74
2023/07/26 01:10:30;;;;;;;6.15;3.83;;;26.70;67.70;;;;;;5093360;28;20676;-74
2023/07/26 01:13:03;;;;;;;7.28;3.35;;;;;;;;;;5090672;28;20266;-74
2023/07/26 01:15:32;;;;;;;7.25;4.10;;;26.70;68.30;;;;;;5094250;28;20181;-74
2023/07/26 01:18:14;;;;;;;7.05;3.78;;;26.60;68.30;;;;;;5093724;28;20648;-74
2023/07/26 01:20:40;;;;;;;7.18;3.03;;;26.60;68.70;;;;;;5094717;28;20784;-74
2023/07/26 01:23:06;;;;;;;5.15;3.13;;;26.60;68.90;;;;;;5090052;28;20200;-74
2023/07/26 01:25:33;;;;;;;7.43;3.08;;;26.60;69.10;;;;;;5089466;28;20220;-74
2023/07/26 01:27:59;;;;;;;9.05;4.10;;;;;;;;;;5089836;28;20174;-74
2023/07/26 01:30:30;;;;;;;7.55;4.20;;;26.50;69.40;;;;;;5095450;28;20176;-74
2023/07/26 01:32:59;;;;;;;5.85;3.35;;;26.50;70.40;;;;;;5092885;28;20205;-74
2023/07/26 01:35:25;;;;;;;6.35;3.33;;;;;;;;;;5094961;28;20194;-74
2023/07/26 01:37:54;;;;;;;2.63;2.42;;;26.40;70.10;;;;;;5083380;28;20254;-74
2023/07/26 01:40:21;;;;;;;10.57;4.22;;;26.40;72.40;;;;;;5083046;28;20555;-74
2023/07/26 01:42:48;;;;;;;4.35;3.22;;;26.30;70.50;;;;;;5092089;28;20546;-74
2023/07/26 01:45:14;;;;;;;7.25;4.57;;;;;;;;;;5086276;28;20574;-74
2023/07/26 01:47:40;;;;;;;8.50;3.92;;;;;;;;;;5092868;28;20557;-74
2023/07/26 01:50:07;;;;;;;8.68;4.53;;;26.30;70.50;;;;;;5082726;28;20181;-74
2023/07/26 01:52:33;;;;;;;4.55;3.20;;;;;;;;;;5092662;28;20182;-74
2023/07/26 01:54:59;;;;;;;3.75;3.15;;;26.30;70.70;;;;;;5095548;28;20181;-74
2023/07/26 01:57:25;;;;;;;5.30;2.72;;;26.30;70.50;;;;;;5082402;28;20191;-74
2023/07/26 01:59:54;;;;;;;7.10;2.78;;;26.30;70.70;;;;;;5090723;28;20625;-75
2023/07/26 02:02:20;;;;;;;4.97;2.75;;;26.20;71.00;;;;;;5086204;28;20627;-74
2023/07/26 02:04:46;;;;;;;5.68;2.85;;;26.20;72.40;;;;;;5094560;28;20227;-74
2023/07/26 02:07:12;;;;;;;8.38;3.50;;;26.00;71.70;;;;;;5082058;28;20186;-74
2023/07/26 02:09:38;;;;;;;9.32;3.92;;;;;;;;;;5081094;28;20175;-74
2023/07/26 02:12:04;;;;;;;5.07;2.90;;;25.80;72.60;;;;;;5082595;28;20218;-74
2023/07/26 02:14:30;;;;;;;5.35;3.88;;;25.80;71.90;;;;;;5087472;28;20203;-74
2023/07/26 02:16:56;;;;;;;4.80;3.55;;;;;;;;;;5084366;28;20177;-74
2023/07/26 02:19:22;;;;;;;5.93;3.03;;;;;;;;;;5082633;28;20253;-75
2023/07/26 02:21:48;;;;;;;4.28;2.50;;;;;;;;;;5091283;28;20332;-73
2023/07/26 02:24:14;;;;;;;4.40;3.40;;;25.80;71.90;;;;;;5080096;28;20773;-74
2023/07/26 02:26:40;;;;;;;6.95;3.58;;;;;;;;;;5089151;28;20257;-74
2023/07/26 02:29:06;;;;;;;5.05;2.95;;;;;;;;;;5090790;28;20224;-74
2023/07/26 02:34:17;;;;;;;5.13;3.13;;;;;;;;;;5076492;28;20625;-74
2023/07/26 02:36:43;;;;;;;5.65;3.42;;;;;;;;;;5088220;28;20175;-74
2023/07/26 02:39:09;;;;;;;5.50;3.00;;;;;;;;;;5092782;28;20177;-75
2023/07/26 02:41:35;;;;;;;3.83;2.80;;;;;;;;;;5091153;28;20231;-74
2023/07/26 02:44:01;;;;;;;2.35;1.90;;;;;;;;;;5086145;28;20187;-75
2023/07/26 02:46:27;;;;;;;7.18;2.42;;;;;;;;;;5096885;28;20181;-75
2023/07/26 02:48:53;;;;;;;2.97;1.85;;;;;;;;;;5089511;28;20209;-74
2023/07/26 02:51:19;;;;;;;5.53;3.35;;;;;;;;;;5098760;28;20182;-75
2023/07/26 02:53:45;;;;;;;4.05;2.53;;;;;;;;;;5088830;28;20276;-75
2023/07/26 02:56:11;;;;;;;6.53;4.03;;;;;;;;;;5085339;28;20188;-75
2023/07/26 02:58:37;;;;;;;6.13;3.55;;;;;;;;;;5085911;28;20185;-74
2023/07/26 03:01:03;;;;;;;4.57;3.08;;;;;;;;;;5088774;28;20182;-74
2023/07/26 03:03:29;;;;;;;7.57;4.97;;;;;;;;;;5094958;28;20174;-74
2023/07/26 03:05:58;;;;;;;5.22;3.95;;;;;;;;;;5098607;28;20174;-75
2023/07/26 03:08:24;;;;;;;7.53;5.05;;;;;;;;;;5082937;28;20179;-75
2023/07/26 03:10:51;;;;;;;6.68;4.30;;;25.80;73.40;;;;;;5099655;28;20535;-75
2023/07/26 03:13:17;;;;;;;10.70;6.75;;;;;;;;;;5086447;28;20284;-74
2023/07/26 03:15:43;;;;;;;12.35;6.55;;;25.70;73.60;;;;;;5099057;28;20173;-74
2023/07/26 03:18:09;;;;;;;6.85;6.15;;;25.70;73.80;;;;;;5085366;28;20641;-75
2023/07/26 03:20:35;;;;;;;7.85;6.80;;;;;;;;;;5096024;28;20559;-74
2023/07/26 03:23:01;;;;;;;8.07;7.15;;;;;;;;;;5088257;28;20721;-74
2023/07/26 03:25:27;;;;;;;9.07;7.88;;;;;;;;;;5094644;28;20186;-74
2023/07/26 03:27:53;;;;;;;12.93;8.27;;;25.50;74.50;;;;;;5082208;28;20228;-74
2023/07/26 03:30:19;;;;;;;11.57;5.85;;;;;;;;;;5084436;28;20170;-74
2023/07/26 03:32:45;;;;;;;10.38;4.75;;;;;;;;;;5094469;28;20976;-74
2023/07/26 03:35:11;;;;;;;11.02;5.65;;;;;;;;;;5096252;28;20170;-75
2023/07/26 03:37:37;;;;;;;7.25;4.68;;;;;;;;;;5094439;28;20166;-75
2023/07/26 03:40:04;;;;;;;4.03;3.63;;;;;;;;;;5095917;28;20169;-74
2023/07/26 03:42:30;;;;;;;6.78;4.80;;;;;;;;;;5093912;28;20237;-75
2023/07/26 03:44:56;;;;;;;9.77;5.35;;;;;;;;;;5095648;28;20179;-75
2023/07/26 03:47:22;;;;;;;4.65;4.10;;;;;;;;;;5094570;28;20767;-75
2023/07/26 03:49:48;;;;;;;14.90;8.30;;;;;;;;;;5093608;28;20170;-75
2023/07/26 03:52:14;;;;;;;7.95;6.22;;;;;;;;;;5084929;28;20258;-74
2023/07/26 03:54:40;;;;;;;7.60;6.05;;;;;;;;;;5096372;28;20308;-74
2023/07/26 03:57:07;;;;;;;6.13;5.10;;;25.00;76.60;;;;;;5093609;28;20257;-74
2023/07/26 03:59:33;;;;;;;7.80;4.82;;;25.00;76.60;;;;;;5083670;28;20186;-75
2023/07/26 04:01:59;;;;;;;4.50;3.78;;;;;;;;;;5086209;28;20263;-75
2023/07/26 04:04:25;;;;;;;11.63;6.50;;;;;;;;;;5082595;28;20174;-75
2023/07/26 04:06:51;;;;;;;9.70;7.18;;;;;;;;;;5086513;28;20225;-75
2023/07/26 04:09:17;;;;;;;9.45;8.55;;;;;;;;;;5094093;28;20169;-75
2023/07/26 04:11:43;;;;;;;16.50;14.93;;;;;;;;;;5085928;28;20577;-74
2023/07/26 04:14:09;;;;;;;18.15;16.73;;;;;;;;;;5091657;28;20210;-75
2023/07/26 04:16:35;;;;;;;31.38;28.63;;;;;;;;;;5090843;28;20178;-75
2023/07/26 04:19:01;;;;;;;21.13;17.98;;;;;;;;;;5090642;28;20617;-75
2023/07/26 04:21:27;;;;;;;13.27;12.07;;;;;;;;;;5090785;28;20177;-74
2023/07/26 04:23:53;;;;;;;26.33;24.05;;;;;;;;;;5084238;28;20230;-74
2023/07/26 04:26:19;;;;;;;23.35;21.20;;;;;;;;;;5092641;28;20255;-75
2023/07/26 04:28:45;;;;;;;26.70;24.50;;;;;;;;;;5094514;28;20832;-75
2023/07/26 04:31:11;;;;;;;44.60;40.45;;;;;;;;;;5082529;28;20182;-74
2023/07/26 04:33:37;;;;;;;50.63;44.95;;;;;;;;;;5092622;28;20213;-75
2023/07/26 04:36:03;;;;;;;60.25;46.75;;;;;;;;;;5092735;28;20649;-75
2023/07/26 04:38:29;;;;;;;65.57;52.92;;;;;;;;;;5092494;28;20558;-74
2023/07/26 04:40:55;;;;;;;42.60;38.50;;;;;;;;;;5092813;28;20174;-74
2023/07/26 04:43:21;;;;;;;50.25;45.08;;;;;;;;;;5092531;28;20178;-74
2023/07/26 04:45:48;;;;;;;52.28;46.63;;;;;;;;;;5092438;28;20181;-75
2023/07/26 04:48:15;;;;;;;77.93;57.72;;;25.30;79.10;;;;;;5092764;28;20252;-76
2023/07/26 04:50:42;;;;;;;85.28;58.80;;;;;;;;;;5090106;28;20184;-75
2023/07/26 04:53:08;;;;;;;109.47;64.65;;;;;;;;;;5093483;28;20615;-75
2023/07/26 04:55:40;;;;;;;111.53;65.00;;;25.60;79.40;;;;;;5090034;28;20258;-76
2023/07/26 04:58:06;;;;;;;7.30;4.82;;;;;;;;;;5096844;28;20679;-75
2023/07/26 05:00:32;;;;;;;9.38;4.85;;;;;;;;;;5093087;28;20710;-76
2023/07/26 05:02:58;;;;;;;14.27;12.20;;;;;;;;;;5087582;28;20197;-75
2023/07/26 05:05:24;;;;;;;47.90;42.33;;;;;;;;;;5082893;28;20257;-75
2023/07/26 05:07:50;;;;;;;45.00;40.15;;;;;;;;;;5090617;28;20187;-75
2023/07/26 05:10:16;;;;;;;41.33;37.72;;;;;;;;;;5084598;28;20263;-75
2023/07/26 05:12:42;;;;;;;66.47;53.83;;;;;;;;;;5092703;28;20778;-75
2023/07/26 05:15:08;;;;;;;20.77;8.70;;;;;;;;;;5089676;28;20170;-75
2023/07/26 05:17:34;;;;;;;20.42;16.55;;;;;;;;;;5090268;28;20181;-76
2023/07/26 05:20:00;;;;;;;30.00;27.05;;;;;;;;;;5084372;28;20170;-74
2023/07/26 05:22:26;;;;;;;40.10;36.42;;;;;;;;;;5089824;28;20238;-74
2023/07/26 05:24:52;;;;;;;42.40;38.38;;;26.50;77.40;;;;;;5085030;28;20244;-74
2023/07/26 05:27:18;;;;;;;102.47;64.28;;;;;;;;;;5092244;28;20184;-74
2023/07/26 05:29:44;;;;;;;117.88;67.65;;;;;;;;;;5092691;28;20178;-74
2023/07/26 05:32:10;;;;;;;141.50;75.32;;;;;;;;;;5094717;28;20173;-74
2023/07/26 05:34:36;;;;;;;96.72;62.05;;;;;;;;;;5092241;28;20206;-74
2023/07/26 05:37:02;;;;;;;128.38;71.15;;;26.60;76.30;;;;;;5091661;28;20880;-75
2023/07/26 05:39:29;;;;;;;120.40;70.97;;;;;;;;;;5092600;28;20179;-76
2023/07/26 05:41:55;;;;;;;8.20;7.40;;;;;;;;;;5092239;28;20182;-75
2023/07/26 05:44:21;;;;;;;52.72;47.03;;;;;;;;;;5090846;28;20674;-75
2023/07/26 05:46:47;;;;;;;58.40;50.60;;;;;;;;;;5089183;28;20242;-74
2023/07/26 05:49:13;;;;;;;30.63;27.77;;;;;;;;;;5089485;28;20166;-75
2023/07/26 05:51:39;;;;;;;35.72;32.95;;;;;;;;;;5095965;28;20170;-75
2023/07/26 05:54:05;;;;;;;47.38;43.03;;;;;;;;;;5089781;28;20898;-75
2023/07/26 05:56:31;;;;;;;63.88;53.22;;;;;;;;;;5089106;28;20183;-75
2023/07/26 05:58:57;;;;;;;95.95;62.33;;;;;;;;;;5075863;28;20179;-75
2023/07/26 06:01:23;;;;;;;62.17;52.42;;;;;;;;;;5094675;28;20213;-74
2023/07/26 06:03:50;;;;;;;61.97;50.70;;;;;;;;;;5088245;28;20633;-74
2023/07/26 06:06:16;;;;;;;19.60;17.95;;;;;;;;;;5092006;28;20617;-74
2023/07/26 06:08:42;;;;;;;20.75;19.15;;;;;;;;;;5091254;28;20201;-74
2023/07/26 06:11:08;;;;;;;36.67;33.05;;;;;;;;;;5092368;28;20167;-75
2023/07/26 06:13:34;;;;;;;38.08;34.60;;;;;;;;;;5092940;28;20625;-75
2023/07/26 06:16:01;;;;;;;26.25;23.83;;;;;;;;;;5092813;28;20255;-74
2023/07/26 06:18:27;;;;;;;41.47;37.88;;;;;;;;;;5093095;28;20654;-75
2023/07/26 06:20:53;;;;;;;43.15;38.75;;;;;;;;;;5089141;28;21411;-75
2023/07/26 06:23:19;;;;;;;31.77;29.10;;;;;;;;;;5083343;28;20171;-75
2023/07/26 06:25:45;;;;;;;52.78;47.40;;;;;;;;;;5100015;27;20179;-75
2023/07/26 06:28:11;;;;;;;53.63;41.05;;;;;;;;;;5095719;28;20171;-75
2023/07/26 06:30:37;;;;;;;32.05;29.33;;;;;;;;;;5090302;28;20183;-75
2023/07/26 06:33:03;;;;;;;53.35;47.95;;;;;;;;;;5096303;28;20206;-75
2023/07/26 06:35:29;;;;;;;58.40;52.00;;;;;;;;;;5097130;28;20189;-75
2023/07/26 06:37:55;;;;;;;44.08;39.92;;;;;;;;;;5085872;28;20667;-75
2023/07/26 06:40:21;;;;;;;34.83;31.63;;;;;;;;;;5099450;28;20262;-76
2023/07/26 06:42:47;;;;;;;60.55;53.95;;;;;;;;;;5096613;28;20659;-75
2023/07/26 06:45:13;;;;;;;69.47;57.20;;;;;;;;;;5094876;28;20189;-75
2023/07/26 06:47:39;;;;;;;53.70;48.08;;;;;;;;;;5089421;28;20175;-75
2023/07/26 06:50:05;;;;;;;30.13;27.13;;;28.50;67.00;;;;;;5092910;28;20679;-75
2023/07/26 06:52:31;;;;;;;52.70;43.67;;;;;;;;;;5080247;28;20658;-75
2023/07/26 06:54:57;;;;;;;32.08;29.45;;;;;;;;;;5096483;28;20206;-75
2023/07/26 06:57:23;;;;;;;14.73;11.10;;;;;;;;;;5089962;28;20662;-75
2023/07/26 06:59:49;;;;;;;34.92;27.85;;;;;;;;;;5089489;28;20178;-75
2023/07/26 07:02:15;;;;;;;43.28;39.33;;;;;;;;;;5096029;28;20239;-75
2023/07/26 07:04:41;;;;;;;31.42;28.73;;;;;;;;;;5098246;28;20235;-75
2023/07/26 07:07:07;;;;;;;42.08;38.45;;;;;;;;;;5096518;28;20246;-75
2023/07/26 07:09:33;;;;;;;13.80;11.82;;;;;;;;;;5099132;28;20166;-75
2023/07/26 07:11:59;;;;;;;10.77;9.75;;;;;;;;;;5087714;28;20194;-75
2023/07/26 07:14:25;;;;;;;10.07;6.90;;;;;;;;;;5098690;28;20229;-75
2023/07/26 07:16:51;;;;;;;11.50;8.57;;;;;;;;;;5095860;28;20170;-75
2023/07/26 07:19:17;;;;;;;41.90;38.50;;;;;;;;;;5096153;28;20182;-75
2023/07/26 07:21:44;;;;;;;32.47;29.60;;;;;;;;;;5095531;28;20186;-75
2023/07/26 07:24:10;;;;;;;25.42;22.95;;;;;;;;;;5099251;28;20166;-75
2023/07/26 07:26:36;;;;;;;37.13;33.85;;;;;;;;;;5092443;28;20174;-75
2023/07/26 07:29:02;;;;;;;12.60;8.55;;;;;;;;;;5086990;28;20175;-75
2023/07/26 07:31:28;;;;;;;21.02;13.00;;;;;;;;;;5081817;28;20182;-75
2023/07/26 07:33:54;;;;;;;6.10;4.22;;;;;;;;;;5098728;28;20206;-75
2023/07/26 07:36:20;;;;;;;7.80;3.92;;;;;;;;;;5095936;28;20252;-75
2023/07/26 07:38:46;;;;;;;13.50;4.60;;;31.10;54.10;;;;;;5089500;28;20214;-75
2023/07/26 07:41:13;;;;;;;13.88;4.53;;;31.10;54.80;;;;;;5096092;28;20182;-75
2023/07/26 07:43:39;;;;;;;8.20;4.65;;;;;;;;;;5093369;28;20616;-74
2023/07/26 07:46:05;;;;;;;11.43;5.63;;;31.20;54.50;;;;;;5091528;28;20201;-75
2023/07/26 07:48:31;;;;;;;7.95;5.22;;;;;;;;;;5089811;28;21091;-75
2023/07/26 07:50:57;;;;;;;11.20;5.97;;;;;;;;;;5095454;28;20177;-75
2023/07/26 07:53:23;;;;;;;9.68;6.10;;;31.30;54.20;;;;;;5097231;28;20205;-75
2023/07/26 07:55:50;;;;;;;11.30;10.35;;;31.30;55.10;;;;;;5091270;28;20329;-75
2023/07/26 07:58:17;;;;;;;20.95;15.52;;;31.40;55.20;;;;;;5090563;28;20254;-75
2023/07/26 08:00:43;;;;;;;27.60;12.93;;;31.50;55.10;;;;;;5084498;28;20664;-74
2023/07/26 08:03:08;;;;;;;17.92;13.25;;;31.60;55.20;;;;;;5090830;28;20166;-75
2023/07/26 08:05:35;;;;;;;12.40;10.88;;;31.60;54.80;;;;;;5089979;28;20651;-75
2023/07/26 08:08:01;;;;;;;11.05;9.48;;;;;;;;;;5096873;28;20307;-75
2023/07/26 08:10:27;;;;;;;14.43;9.23;;;;;;;;;;5085428;28;20211;-75
2023/07/26 08:12:53;;;;;;;8.13;7.22;;;;;;;;;;5086509;28;20190;-75
2023/07/26 08:15:19;;;;;;;21.08;10.68;;;;;;;;;;5091413;28;20191;-75
2023/07/26 08:17:45;;;;;;;16.90;15.23;;;;;;;;;;5095933;28;20177;-75
2023/07/26 08:20:11;;;;;;;19.33;17.52;;;;;;;;;;5094051;28;20273;-75
2023/07/26 08:22:38;;;;;;;25.45;20.45;;;31.90;52.30;;;;;;5095201;28;20182;-75
2023/07/26 08:25:04;;;;;;;19.17;17.20;;;32.00;52.20;;;;;;5094493;28;20256;-75
2023/07/26 08:27:30;;;;;;;18.05;16.38;;;;;;;;;;5091202;27;20178;-75
2023/07/26 08:29:56;;;;;;;31.20;28.20;;;;;;;;;;5088251;28;20178;-75
2023/07/26 08:32:22;;;;;;;42.97;39.08;;;32.30;49.70;;;;;;5092202;28;20174;-75
2023/07/26 08:34:48;;;;;;;38.42;34.33;;;;;;;;;;5092155;28;20217;-75
2023/07/26 08:37:14;;;;;;;43.33;39.72;;;;;;;;;;5087823;28;20175;-75
2023/07/26 08:39:40;;;;;;;52.28;47.20;;;;;;;;;;5087123;28;20182;-75
2023/07/26 08:42:07;;;;;;;53.70;48.70;;;;;;;;;;5093670;28;20174;-75
2023/07/26 08:44:34;;;;;;;64.90;57.85;;;32.60;48.00;;;;;;5091655;28;20677;-74
2023/07/26 08:47:00;;;;;;;66.28;59.58;;;32.60;48.40;;;;;;5089273;28;20198;-75
2023/07/26 08:49:27;;;;;;;81.05;65.00;;;32.70;48.70;;;;;;5089671;28;20724;-75
2023/07/26 08:51:54;;;;;;;95.03;65.38;;;32.70;49.00;;;;;;5093532;28;20170;-75
2023/07/26 08:54:21;;;;;;;66.35;59.42;;;32.80;48.80;;;;;;5094723;28;20252;-75
2023/07/26 08:56:48;;;;;;;52.30;47.40;;;;;;;;;;5092416;28;20560;-75
2023/07/26 08:59:14;;;;;;;77.18;63.92;;;;;;;;;;5086451;28;20604;-75
2023/07/26 09:01:40;;;;;;;53.25;47.97;;;32.90;48.20;;;;;;5081378;28;20182;-75
2023/07/26 09:04:06;;;;;;;66.93;59.80;;;;;;;;;;5092722;28;20214;-74
2023/07/26 09:06:40;;;;;;;41.95;37.95;;;;;;;;;;5088236;28;20202;-75
2023/07/26 09:09:06;;;;;;;9.43;7.85;;;33.10;47.70;;;;;;5089907;28;20177;-75
2023/07/26 09:11:33;;;;;;;17.75;16.00;;;33.10;46.60;;;;;;5089643;28;20198;-74
2023/07/26 09:13:59;;;;;;;26.23;23.92;;;33.20;46.80;;;;;;5087994;28;20202;-75
2023/07/26 09:16:29;;;;;;;42.25;38.78;;;33.20;47.10;;;;;;5083199;28;20167;-75
2023/07/26 09:18:59;;;;;;;38.55;35.60;;;;;;;;;;5090335;28;20165;-75
2023/07/26 09:21:33;;;;;;;32.22;29.70;;;33.30;48.10;;;;;;5088790;28;20206;-75
2023/07/26 09:24:00;;;;;;;39.22;35.92;;;33.50;47.20;;;;;;5086407;28;20174;-75
2023/07/26 09:26:39;;;;;;;30.50;27.90;;;;;;;;;;5088457;28;20182;-74
2023/07/26 09:29:11;;;;;;;43.60;40.47;;;33.40;48.00;;;;;;5089045;28;20270;-74
2023/07/26 09:31:44;;;;;;;33.47;30.70;;;33.50;48.00;;;;;;5086636;28;20550;-74
2023/07/26 09:34:12;;;;;;;47.05;43.05;;;;;;;;;;5088421;28;20208;-74
2023/07/26 09:36:45;;;;;;;51.50;47.17;;;;;;;;;;5088479;28;20280;-74
2023/07/26 09:39:12;;;;;;;46.05;41.90;;;33.50;47.90;;;;;;5087918;28;20173;-75
2023/07/26 09:41:39;;;;;;;51.63;47.10;;;33.60;48.40;;;;;;5089981;28;20181;-75
2023/07/26 09:44:08;;;;;;;48.28;44.03;;;33.70;48.70;;;;;;5086164;28;20178;-74
2023/07/26 09:46:50;;;;;;;34.65;31.23;;;;;;;;;;5091177;28;20591;-74
2023/07/26 09:49:29;;;;;;;27.23;23.77;;;;;;;;;;5088692;28;20283;-74
2023/07/26 09:51:59;;;;;;;24.85;22.08;;;;;;;;;;5095020;28;20231;-74
2023/07/26 09:54:29;;;;;;;25.48;22.92;;;34.00;48.70;;;;;;5084588;28;20245;-74
2023/07/26 09:56:58;;;;;;;36.78;33.92;;;34.10;48.30;;;;;;5095003;28;20178;-74
2023/07/26 09:59:25;;;;;;;21.25;14.05;;;;;;;;;;5092845;28;20525;-75
2023/07/26 10:01:53;;;;;;;26.90;23.92;;;34.30;47.90;;;;;;5092440;28;20182;-75
2023/07/26 10:04:26;;;;;;;23.48;18.35;;;;;;;;;;5095874;28;20173;-75
2023/07/26 10:06:55;;;;;;;32.75;29.60;;;;;;;;;;5096582;28;20177;-74
2023/07/26 10:09:23;;;;;;;63.90;57.40;;;34.60;47.80;;;;;;5095633;28;20181;-74
2023/07/26 10:11:49;;;;;;;57.95;52.65;;;;;;;;;;5092704;28;20185;-75
2023/07/26 10:14:16;;;;;;;66.55;59.78;;;;;;;;;;5092715;28;20816;-74
2023/07/26 10:16:42;;;;;;;58.80;53.35;;;;;;;;;;5093093;28;20235;-74
2023/07/26 10:19:11;;;;;;;41.88;38.13;;;35.50;47.20;;;;;;5093299;28;20553;-75
2023/07/26 10:21:37;;;;;;;46.08;42.30;;;;;;;;;;5092881;28;20570;-75
2023/07/26 10:24:04;;;;;;;74.72;67.15;;;35.50;46.20;;;;;;5098681;28;20181;-75
2023/07/26 10:26:32;;;;;;;85.80;73.70;;;;;;;;;;5096004;28;20253;-75
2023/07/26 10:28:59;;;;;;;67.70;60.67;;;36.00;45.50;;;;;;5092703;28;20170;-74
2023/07/26 10:31:31;;;;;;;84.38;75.53;;;;;;;;;;5091569;28;20756;-75
2023/07/26 10:33:58;;;;;;;103.60;84.82;;;;;;;;;;5091081;28;20641;-74
2023/07/26 10:36:33;;;;;;;136.75;90.15;;;36.70;44.80;;;;;;5092546;28;20564;-74
2023/07/26 10:39:27;;;;;;;102.68;85.55;;;36.90;43.70;;;;;;5089503;28;20181;-74
2023/07/26 10:41:53;;;;;;;161.63;103.57;;;;;;;;;;5094195;28;20177;-73
2023/07/26 10:44:19;;;;;;;154.07;103.40;;;;;;;;;;5092093;28;20698;-73
2023/07/26 10:46:48;;;;;;;159.10;103.88;;;;;;;;;;5092354;28;20202;-74
2023/07/26 10:49:33;;;;;;;173.30;108.63;;;;;;;;;;5094166;28;20173;-74
2023/07/26 10:52:02;;;;;;;179.73;108.57;;;;;;;;;;5092187;28;20768;-74
2023/07/26 10:54:38;;;;;;;177.25;107.25;;;;;;;;;;5091827;28;20202;-75
2023/07/26 10:57:15;;;;;;;145.70;107.63;;;;;;;;;;5092022;28;20174;-75
2023/07/26 10:59:57;;;;;;;153.23;108.32;;;;;;;;;;5094005;28;20177;-75
2023/07/26 11:02:39;;;;;;;170.98;107.47;;;;;;;;;;5092201;28;20177;-74
2023/07/26 11:05:07;;;;;;;160.45;108.32;;;;;;;;;;5085844;28;20257;-75
2023/07/26 11:07:51;;;;;;;156.38;108.25;;;39.20;42.20;;;;;;5084724;28;20201;-75
2023/07/26 11:10:37;;;;;;;152.38;108.40;;;;;;;;;;5087527;28;20557;-75
2023/07/26 11:13:10;;;;;;;157.98;110.35;;;;;;;;;;5090334;28;20189;-74
2023/07/26 11:15:37;;;;;;;173.40;114.75;;;;;;;;;;5095303;28;20268;-75
2023/07/26 11:18:03;;;;;;;158.35;112.10;;;39.60;41.90;;;;;;5091642;28;20655;-75
2023/07/26 11:20:30;;;;;;;127.18;101.57;;;;;;;;;;5094178;28;20702;-75
2023/07/26 11:22:55;;;;;;;106.75;94.45;;;39.60;42.20;;;;;;5091854;28;20554;-75
2023/07/26 11:25:21;;;;;;;116.32;97.90;;;;;;;;;;5095184;28;20184;-75
2023/07/26 11:27:50;;;;;;;101.28;90.90;;;;;;;;;;5094403;28;20174;-75
2023/07/26 11:30:17;;;;;;;53.17;48.33;;;39.80;42.00;;;;;;5091514;28;20544;-75
2023/07/26 11:32:48;;;;;;;17.83;15.50;;;39.90;41.60;;;;;;5091652;28;20193;-75
2023/07/26 11:35:21;;;;;;;14.13;10.85;;;39.80;41.60;;;;;;5090263;28;20213;-75
2023/07/26 11:37:56;;;;;;;13.35;12.00;;;39.70;41.50;;;;;;5091841;28;20178;-75
2023/07/26 11:40:22;;;;;;;19.35;10.15;;;39.80;41.50;;;;;;5091031;28;20184;-74
2023/07/26 11:42:52;;;;;;;34.90;31.63;;;40.30;41.20;;;;;;5091001;28;20174;-75
2023/07/26 11:45:17;;;;;;;21.08;18.95;;;40.80;40.70;;;;;;5091014;28;20162;-74
2023/07/26 11:47:45;;;;;;;12.52;11.43;;;41.00;40.90;;;;;;5091314;28;20235;-74
2023/07/26 11:50:11;;;;;;;27.33;24.80;;;;;;;;;;5091420;28;20178;-74
2023/07/26 11:52:38;;;;;;;21.92;19.77;;;;;;;;;;5091516;28;20227;-75
2023/07/26 11:55:05;;;;;;;14.07;13.18;;;41.10;41.20;;;;;;5089679;28;20205;-75
2023/07/26 11:57:31;;;;;;;8.98;4.47;;;41.00;41.20;;;;;;5094670;28;20247;-75
2023/07/26 12:00:00;;;;;;;11.43;5.43;;;40.90;40.70;;;;;;5094921;28;20169;-74
2023/07/26 12:02:26;;;;;;;13.32;5.00;;;40.70;40.90;;;;;;5095681;28;20186;-74
2023/07/26 12:05:18;;;;;;;13.73;5.40;;;40.70;41.30;;;;;;5087206;28;20655;-74
2023/07/26 12:07:54;;;;;;;14.50;7.38;;;40.90;41.20;;;;;;5085688;28;20177;-74
2023/07/26 12:10:31;;;;;;;14.52;7.70;;;40.90;41.70;;;;;;5095380;28;20545;-74
2023/07/26 12:12:58;;;;;;;10.07;6.47;;;41.00;41.30;;;;;;5092630;28;20409;-75
2023/07/26 12:15:25;;;;;;;15.95;7.72;;;40.90;42.30;;;;;;5092388;28;20235;-74
2023/07/26 12:18:02;;;;;;;12.32;7.53;;;40.80;41.90;;;;;;5092077;28;20170;-74
2023/07/26 12:20:30;;;;;;;14.15;10.25;;;40.60;42.20;;;;;;5098300;28;20188;-75
2023/07/26 12:22:58;;;;;;;14.65;7.40;;;40.60;42.60;;;;;;5090639;28;20276;-74
2023/07/26 12:25:38;;;;;;;12.90;9.93;;;40.90;42.70;;;;;;5097921;28;20237;-74
2023/07/26 12:28:07;;;;;;;7.90;6.63;;;41.30;42.50;;;;;;5087277;28;20260;-74
2023/07/26 12:30:34;;;;;;;15.18;13.70;;;41.70;42.40;;;;;;5090228;28;20265;-74
2023/07/26 12:33:13;;;;;;;9.80;8.90;;;41.70;40.90;;;;;;5090492;28;20197;-74
2023/07/26 12:35:44;;;;;;;22.90;15.82;;;;;;;;;;5088221;28;20177;-74
2023/07/26 12:38:23;;;;;;;12.82;10.48;;;41.70;40.90;;;;;;5094733;28;20194;-74
2023/07/26 12:40:52;;;;;;;19.77;17.45;;;;;;;;;;5081805;28;20177;-74
2023/07/26 12:43:29;;;;;;;33.65;30.65;;;;;;;;;;5088300;28;20173;-74
2023/07/26 12:45:56;;;;;;;43.65;40.10;;;42.30;41.30;;;;;;5092289;28;20181;-75
2023/07/26 12:48:23;;;;;;;47.20;43.25;;;42.50;41.30;;;;;;5089030;28;20167;-75
2023/07/26 12:50:51;;;;;;;45.42;41.80;;;42.60;40.60;;;;;;5086363;28;20173;-75
2023/07/26 12:53:18;;;;;;;33.28;29.75;;;42.50;41.10;;;;;;5087541;28;20190;-75
2023/07/26 12:55:44;;;;;;;34.80;32.15;;;;;;;;;;5093787;28;20231;-75
2023/07/26 12:58:10;;;;;;;26.15;24.23;;;;;;;;;;5097101;28;20178;-75
2023/07/26 13:00:36;;;;;;;28.30;26.30;;;42.20;41.10;;;;;;5093471;28;20202;-75
2023/07/26 13:03:02;;;;;;;39.33;35.88;;;;;;;;;;5080880;28;20209;-75
2023/07/26 13:05:28;;;;;;;47.72;44.10;;;;;;;;;;5076982;28;20181;-75
2023/07/26 13:07:54;;;;;;;17.73;12.15;;;41.80;41.90;;;;;;5086856;28;20170;-75
2023/07/26 13:10:21;;;;;;;22.02;11.35;;;41.50;41.20;;;;;;5083992;28;20571;-75
2023/07/26 13:12:47;;;;;;;10.02;9.15;;;41.50;41.90;;;;;;5076806;28;20182;-75
2023/07/26 13:15:13;;;;;;;24.35;22.13;;;41.50;41.50;;;;;;5076957;28;20214;-75
2023/07/26 13:17:39;;;;;;;18.50;16.48;;;;;;;;;;5092664;28;20588;-75
2023/07/26 13:20:05;;;;;;;29.83;27.33;;;40.70;41.90;;;;;;5088173;28;20174;-75
2023/07/26 13:22:34;;;;;;;51.22;47.03;;;40.20;42.80;;;;;;5092905;28;20178;-75
2023/07/26 13:25:00;;;;;;;68.05;62.45;;;;;;;;;;5093326;28;20185;-75
2023/07/26 13:27:26;;;;;;;52.58;48.83;;;;;;;;;;5085680;28;20256;-75
2023/07/26 13:29:52;;;;;;;68.68;62.85;;;;;;;;;;5091962;28;20223;-75
2023/07/26 13:32:18;;;;;;;74.25;67.85;;;;;;;;;;5085307;28;20618;-75
2023/07/26 13:34:44;;;;;;;85.15;77.10;;;;;;;;;;5092632;28;20209;-75
2023/07/26 13:37:10;;;;;;;84.47;76.82;;;;;;;;;;5091823;28;20170;-75
2023/07/26 13:39:36;;;;;;;97.07;87.60;;;;;;;;;;5075002;28;20185;-75
2023/07/26 13:42:02;;;;;;;46.80;43.10;;;;;;;;;;5083422;28;20256;-75
2023/07/26 13:44:28;;;;;;;47.58;43.53;;;;;;;;;;5091272;28;20178;-75
2023/07/26 13:46:54;;;;;;;54.60;50.33;;;;;;;;;;5087334;28;20197;-75